sensor_id;sensor_type;location;lat;lon;timestamp;P1;durP1;ratioP1;P2;durP2;ratioP2
10471;SDS011;5283;48.876;8.962;2023-12-04T00:01:12;6.03;;;4.63;;
10471;SDS011;5283;48.876;8.962;2023-12-04T00:03:39;5.93;;;4.57;;
10471;SDS011;5283;48.876;8.962;2023-12-04T00:06:06;6.50;;;4.73;;
10471;SDS011;5283;48.876;8.962;2023-12-04T00:08:33;7.23;;;4.63;;
10471;SDS011;5283;48.876;8.962;2023-12-04T00:11:00;6.57;;;5.10;;
10471;SDS011;5283;48.876;8.962;2023-12-04T00:13:26;9.73;;;6.40;;
10471;SDS011;5283;48.876;8.962;2023-12-04T00:15:53;10.17;;;6.53;;
10471;SDS011;5283;48.876;8.962;2023-12-04T00:18:20;9.13;;;5.90;;
10471;SDS011;5283;48.876;8.962;2023-12-04T00:20:46;7.17;;;5.33;;
10471;SDS011;5283;48.876;8.962;2023-12-04T00:23:14;6.53;;;5.47;;
10471;SDS011;5283;48.876;8.962;2023-12-04T00:25:41;5.87;;;4.80;;
10471;SDS011;5283;48.876;8.962;2023-12-04T00:28:07;6.80;;;5.10;;
10471;SDS011;5283;48.876;8.962;2023-12-04T00:30:34;7.00;;;5.30;;
10471;SDS011;5283;48.876;8.962;2023-12-04T00:33:01;5.20;;;4.07;;
10471;SDS011;5283;48.876;8.962;2023-12-04T00:35:28;6.60;;;5.00;;
10471;SDS011;5283;48.876;8.962;2023-12-04T00:37:55;6.37;;;5.20;;
10471;SDS011;5283;48.876;8.962;2023-12-04T00:40:21;6.20;;;4.73;;
10471;SDS011;5283;48.876;8.962;2023-12-04T00:42:48;6.00;;;4.60;;
10471;SDS011;5283;48.876;8.962;2023-12-04T00:45:15;6.30;;;5.03;;
10471;SDS011;5283;48.876;8.962;2023-12-04T00:47:41;6.53;;;4.93;;
10471;SDS011;5283;48.876;8.962;2023-12-04T00:50:08;7.33;;;5.27;;
10471;SDS011;5283;48.876;8.962;2023-12-04T00:52:36;5.90;;;4.90;;
10471;SDS011;5283;48.876;8.962;2023-12-04T00:55:03;6.77;;;5.27;;
10471;SDS011;5283;48.876;8.962;2023-12-04T00:57:30;8.20;;;5.93;;
10471;SDS011;5283;48.876;8.962;2023-12-04T00:59:57;6.63;;;5.10;;
10471;SDS011;5283;48.876;8.962;2023-12-04T01:02:24;6.73;;;5.20;;
10471;SDS011;5283;48.876;8.962;2023-12-04T01:04:50;6.50;;;5.00;;
10471;SDS011;5283;48.876;8.962;2023-12-04T01:07:17;6.43;;;4.67;;
10471;SDS011;5283;48.876;8.962;2023-12-04T01:09:44;6.73;;;5.33;;
10471;SDS011;5283;48.876;8.962;2023-12-04T01:12:10;7.37;;;4.90;;
10471;SDS011;5283;48.876;8.962;2023-12-04T01:14:38;7.83;;;5.37;;
10471;SDS011;5283;48.876;8.962;2023-12-04T01:17:04;6.87;;;5.20;;
10471;SDS011;5283;48.876;8.962;2023-12-04T01:19:32;6.30;;;4.97;;
10471;SDS011;5283;48.876;8.962;2023-12-04T01:21:59;6.60;;;5.10;;
10471;SDS011;5283;48.876;8.962;2023-12-04T01:24:26;5.73;;;4.73;;
10471;SDS011;5283;48.876;8.962;2023-12-04T01:26:52;6.23;;;4.90;;
10471;SDS011;5283;48.876;8.962;2023-12-04T01:29:19;5.33;;;4.57;;
10471;SDS011;5283;48.876;8.962;2023-12-04T01:31:46;5.90;;;4.70;;
10471;SDS011;5283;48.876;8.962;2023-12-04T01:34:12;6.30;;;4.73;;
10471;SDS011;5283;48.876;8.962;2023-12-04T01:36:42;6.23;;;4.77;;
10471;SDS011;5283;48.876;8.962;2023-12-04T01:39:08;6.60;;;5.00;;
10471;SDS011;5283;48.876;8.962;2023-12-04T01:41:35;6.00;;;4.93;;
10471;SDS011;5283;48.876;8.962;2023-12-04T01:44:02;5.73;;;4.70;;
10471;SDS011;5283;48.876;8.962;2023-12-04T01:46:29;6.63;;;4.63;;
10471;SDS011;5283;48.876;8.962;2023-12-04T01:48:56;5.77;;;4.57;;
10471;SDS011;5283;48.876;8.962;2023-12-04T01:51:23;6.00;;;4.57;;
10471;SDS011;5283;48.876;8.962;2023-12-04T01:53:52;6.30;;;4.57;;
10471;SDS011;5283;48.876;8.962;2023-12-04T01:56:19;6.10;;;4.70;;
10471;SDS011;5283;48.876;8.962;2023-12-04T01:58:46;6.70;;;4.63;;
10471;SDS011;5283;48.876;8.962;2023-12-04T02:01:13;6.27;;;4.77;;
10471;SDS011;5283;48.876;8.962;2023-12-04T02:03:41;6.60;;;5.00;;
10471;SDS011;5283;48.876;8.962;2023-12-04T02:06:09;5.60;;;4.47;;
10471;SDS011;5283;48.876;8.962;2023-12-04T02:08:36;6.87;;;4.67;;
10471;SDS011;5283;48.876;8.962;2023-12-04T02:11:02;5.97;;;4.67;;
10471;SDS011;5283;48.876;8.962;2023-12-04T02:13:29;5.83;;;4.57;;
10471;SDS011;5283;48.876;8.962;2023-12-04T02:15:56;5.83;;;4.43;;
10471;SDS011;5283;48.876;8.962;2023-12-04T02:18:28;6.27;;;4.60;;
10471;SDS011;5283;48.876;8.962;2023-12-04T02:20:55;6.47;;;4.73;;
10471;SDS011;5283;48.876;8.962;2023-12-04T02:23:22;5.47;;;4.13;;
10471;SDS011;5283;48.876;8.962;2023-12-04T02:25:48;5.83;;;4.83;;
10471;SDS011;5283;48.876;8.962;2023-12-04T02:28:17;5.40;;;4.20;;
10471;SDS011;5283;48.876;8.962;2023-12-04T02:30:45;6.90;;;5.23;;
10471;SDS011;5283;48.876;8.962;2023-12-04T02:33:14;5.37;;;4.43;;
10471;SDS011;5283;48.876;8.962;2023-12-04T02:35:44;5.40;;;4.30;;
10471;SDS011;5283;48.876;8.962;2023-12-04T02:38:12;5.80;;;4.50;;
10471;SDS011;5283;48.876;8.962;2023-12-04T02:40:40;6.00;;;4.47;;
10471;SDS011;5283;48.876;8.962;2023-12-04T02:43:07;6.17;;;4.30;;
10471;SDS011;5283;48.876;8.962;2023-12-04T02:45:34;5.63;;;4.40;;
10471;SDS011;5283;48.876;8.962;2023-12-04T02:48:00;5.77;;;4.73;;
10471;SDS011;5283;48.876;8.962;2023-12-04T02:50:28;5.03;;;4.20;;
10471;SDS011;5283;48.876;8.962;2023-12-04T02:52:55;5.63;;;4.23;;
10471;SDS011;5283;48.876;8.962;2023-12-04T02:55:21;4.83;;;4.03;;
10471;SDS011;5283;48.876;8.962;2023-12-04T02:57:48;5.47;;;4.23;;
10471;SDS011;5283;48.876;8.962;2023-12-04T03:00:15;5.13;;;4.13;;
10471;SDS011;5283;48.876;8.962;2023-12-04T03:02:42;4.97;;;4.13;;
10471;SDS011;5283;48.876;8.962;2023-12-04T03:05:09;6.47;;;4.40;;
10471;SDS011;5283;48.876;8.962;2023-12-04T03:07:35;5.20;;;4.03;;
10471;SDS011;5283;48.876;8.962;2023-12-04T03:10:02;4.67;;;4.10;;
10471;SDS011;5283;48.876;8.962;2023-12-04T03:12:29;5.60;;;4.33;;
10471;SDS011;5283;48.876;8.962;2023-12-04T03:14:56;6.43;;;4.83;;
10471;SDS011;5283;48.876;8.962;2023-12-04T03:17:23;6.13;;;4.40;;
10471;SDS011;5283;48.876;8.962;2023-12-04T03:19:51;5.13;;;4.13;;
10471;SDS011;5283;48.876;8.962;2023-12-04T03:22:18;5.70;;;4.53;;
10471;SDS011;5283;48.876;8.962;2023-12-04T03:24:44;4.47;;;3.97;;
10471;SDS011;5283;48.876;8.962;2023-12-04T03:27:12;5.23;;;3.93;;
10471;SDS011;5283;48.876;8.962;2023-12-04T03:29:38;5.03;;;3.80;;
10471;SDS011;5283;48.876;8.962;2023-12-04T03:32:05;4.53;;;3.80;;
10471;SDS011;5283;48.876;8.962;2023-12-04T03:34:32;4.57;;;3.77;;
10471;SDS011;5283;48.876;8.962;2023-12-04T03:36:59;4.77;;;3.80;;
10471;SDS011;5283;48.876;8.962;2023-12-04T03:39:25;5.27;;;4.27;;
10471;SDS011;5283;48.876;8.962;2023-12-04T03:41:52;5.67;;;4.03;;
10471;SDS011;5283;48.876;8.962;2023-12-04T03:44:19;4.60;;;3.80;;
10471;SDS011;5283;48.876;8.962;2023-12-04T03:46:46;6.10;;;4.17;;
10471;SDS011;5283;48.876;8.962;2023-12-04T03:49:12;4.90;;;3.93;;
10471;SDS011;5283;48.876;8.962;2023-12-04T03:51:39;4.93;;;3.83;;
10471;SDS011;5283;48.876;8.962;2023-12-04T03:54:06;5.23;;;4.30;;
10471;SDS011;5283;48.876;8.962;2023-12-04T03:56:32;4.77;;;3.77;;
10471;SDS011;5283;48.876;8.962;2023-12-04T03:58:59;5.30;;;4.03;;
10471;SDS011;5283;48.876;8.962;2023-12-04T04:01:26;6.03;;;4.60;;
10471;SDS011;5283;48.876;8.962;2023-12-04T04:03:52;6.17;;;4.90;;
10471;SDS011;5283;48.876;8.962;2023-12-04T04:06:19;6.13;;;4.60;;
10471;SDS011;5283;48.876;8.962;2023-12-04T04:08:46;5.80;;;4.03;;
10471;SDS011;5283;48.876;8.962;2023-12-04T04:11:12;4.77;;;4.00;;
10471;SDS011;5283;48.876;8.962;2023-12-04T04:13:39;5.87;;;4.20;;
10471;SDS011;5283;48.876;8.962;2023-12-04T04:16:06;5.43;;;4.00;;
10471;SDS011;5283;48.876;8.962;2023-12-04T04:18:33;5.40;;;4.27;;
10471;SDS011;5283;48.876;8.962;2023-12-04T04:21:00;5.83;;;4.40;;
10471;SDS011;5283;48.876;8.962;2023-12-04T04:23:28;5.03;;;3.87;;
10471;SDS011;5283;48.876;8.962;2023-12-04T04:25:55;5.67;;;4.20;;
10471;SDS011;5283;48.876;8.962;2023-12-04T04:28:21;4.80;;;3.97;;
10471;SDS011;5283;48.876;8.962;2023-12-04T04:30:48;4.80;;;4.03;;
10471;SDS011;5283;48.876;8.962;2023-12-04T04:33:15;4.77;;;4.20;;
10471;SDS011;5283;48.876;8.962;2023-12-04T04:35:43;6.40;;;4.27;;
10471;SDS011;5283;48.876;8.962;2023-12-04T04:38:10;5.87;;;4.43;;
10471;SDS011;5283;48.876;8.962;2023-12-04T04:40:36;5.97;;;4.50;;
10471;SDS011;5283;48.876;8.962;2023-12-04T04:43:08;5.20;;;4.20;;
10471;SDS011;5283;48.876;8.962;2023-12-04T04:45:36;5.23;;;4.00;;
10471;SDS011;5283;48.876;8.962;2023-12-04T04:48:02;4.67;;;4.00;;
10471;SDS011;5283;48.876;8.962;2023-12-04T04:50:29;4.87;;;4.13;;
10471;SDS011;5283;48.876;8.962;2023-12-04T04:52:56;5.67;;;4.40;;
10471;SDS011;5283;48.876;8.962;2023-12-04T04:55:23;6.23;;;4.90;;
10471;SDS011;5283;48.876;8.962;2023-12-04T04:57:49;6.03;;;4.20;;
10471;SDS011;5283;48.876;8.962;2023-12-04T05:00:17;4.97;;;4.00;;
10471;SDS011;5283;48.876;8.962;2023-12-04T05:02:44;6.00;;;4.13;;
10471;SDS011;5283;48.876;8.962;2023-12-04T05:05:10;5.50;;;4.00;;
10471;SDS011;5283;48.876;8.962;2023-12-04T05:07:37;5.60;;;4.30;;
10471;SDS011;5283;48.876;8.962;2023-12-04T05:10:04;4.77;;;3.67;;
10471;SDS011;5283;48.876;8.962;2023-12-04T05:12:31;5.80;;;3.97;;
10471;SDS011;5283;48.876;8.962;2023-12-04T05:14:58;5.03;;;4.00;;
10471;SDS011;5283;48.876;8.962;2023-12-04T05:17:25;5.37;;;3.87;;
10471;SDS011;5283;48.876;8.962;2023-12-04T05:19:51;5.00;;;4.33;;
10471;SDS011;5283;48.876;8.962;2023-12-04T05:22:18;5.07;;;4.20;;
10471;SDS011;5283;48.876;8.962;2023-12-04T05:24:45;5.10;;;4.50;;
10471;SDS011;5283;48.876;8.962;2023-12-04T05:27:11;4.40;;;3.93;;
10471;SDS011;5283;48.876;8.962;2023-12-04T05:29:38;5.40;;;3.90;;
10471;SDS011;5283;48.876;8.962;2023-12-04T05:32:05;4.57;;;4.03;;
10471;SDS011;5283;48.876;8.962;2023-12-04T05:34:32;5.73;;;4.30;;
10471;SDS011;5283;48.876;8.962;2023-12-04T05:36:58;4.93;;;4.03;;
10471;SDS011;5283;48.876;8.962;2023-12-04T05:39:25;4.33;;;3.70;;
10471;SDS011;5283;48.876;8.962;2023-12-04T05:41:52;4.57;;;4.00;;
10471;SDS011;5283;48.876;8.962;2023-12-04T05:44:19;6.93;;;4.77;;
10471;SDS011;5283;48.876;8.962;2023-12-04T05:46:46;15.07;;;9.07;;
10471;SDS011;5283;48.876;8.962;2023-12-04T05:49:13;15.27;;;9.27;;
10471;SDS011;5283;48.876;8.962;2023-12-04T05:51:40;9.53;;;6.67;;
10471;SDS011;5283;48.876;8.962;2023-12-04T05:54:07;6.17;;;4.77;;
10471;SDS011;5283;48.876;8.962;2023-12-04T05:56:34;4.27;;;3.80;;
10471;SDS011;5283;48.876;8.962;2023-12-04T05:59:01;4.53;;;3.60;;
10471;SDS011;5283;48.876;8.962;2023-12-04T06:01:28;4.40;;;3.80;;
10471;SDS011;5283;48.876;8.962;2023-12-04T06:03:55;5.13;;;4.40;;
10471;SDS011;5283;48.876;8.962;2023-12-04T06:06:22;5.33;;;4.27;;
10471;SDS011;5283;48.876;8.962;2023-12-04T06:08:48;4.80;;;4.27;;
10471;SDS011;5283;48.876;8.962;2023-12-04T06:11:15;4.57;;;3.90;;
10471;SDS011;5283;48.876;8.962;2023-12-04T06:13:42;4.87;;;3.97;;
10471;SDS011;5283;48.876;8.962;2023-12-04T06:16:09;4.03;;;3.60;;
10471;SDS011;5283;48.876;8.962;2023-12-04T06:18:35;3.80;;;3.33;;
10471;SDS011;5283;48.876;8.962;2023-12-04T06:21:02;4.90;;;4.07;;
10471;SDS011;5283;48.876;8.962;2023-12-04T06:23:29;6.07;;;4.17;;
10471;SDS011;5283;48.876;8.962;2023-12-04T06:25:56;5.40;;;3.97;;
10471;SDS011;5283;48.876;8.962;2023-12-04T06:28:24;4.13;;;3.73;;
10471;SDS011;5283;48.876;8.962;2023-12-04T06:30:51;6.20;;;3.50;;
10471;SDS011;5283;48.876;8.962;2023-12-04T06:33:18;5.77;;;3.50;;
10471;SDS011;5283;48.876;8.962;2023-12-04T06:35:46;4.13;;;3.70;;
10471;SDS011;5283;48.876;8.962;2023-12-04T06:38:14;4.03;;;3.50;;
10471;SDS011;5283;48.876;8.962;2023-12-04T06:40:45;4.40;;;3.67;;
10471;SDS011;5283;48.876;8.962;2023-12-04T06:43:12;4.73;;;3.50;;
10471;SDS011;5283;48.876;8.962;2023-12-04T06:45:39;4.47;;;4.07;;
10471;SDS011;5283;48.876;8.962;2023-12-04T06:48:06;4.37;;;3.90;;
10471;SDS011;5283;48.876;8.962;2023-12-04T06:50:35;4.73;;;3.97;;
10471;SDS011;5283;48.876;8.962;2023-12-04T06:53:02;4.70;;;3.90;;
10471;SDS011;5283;48.876;8.962;2023-12-04T06:55:28;5.53;;;4.47;;
10471;SDS011;5283;48.876;8.962;2023-12-04T06:57:55;4.80;;;4.23;;
10471;SDS011;5283;48.876;8.962;2023-12-04T07:00:22;5.20;;;4.40;;
10471;SDS011;5283;48.876;8.962;2023-12-04T07:02:49;5.13;;;4.37;;
10471;SDS011;5283;48.876;8.962;2023-12-04T07:05:16;5.53;;;4.33;;
10471;SDS011;5283;48.876;8.962;2023-12-04T07:07:44;6.33;;;4.90;;
10471;SDS011;5283;48.876;8.962;2023-12-04T07:10:11;7.60;;;4.97;;
10471;SDS011;5283;48.876;8.962;2023-12-04T07:12:41;5.60;;;4.57;;
10471;SDS011;5283;48.876;8.962;2023-12-04T07:15:08;5.00;;;4.30;;
10471;SDS011;5283;48.876;8.962;2023-12-04T07:17:36;7.50;;;5.13;;
10471;SDS011;5283;48.876;8.962;2023-12-04T07:20:03;5.83;;;4.90;;
10471;SDS011;5283;48.876;8.962;2023-12-04T07:22:33;6.00;;;4.70;;
10471;SDS011;5283;48.876;8.962;2023-12-04T07:25:00;5.67;;;4.80;;
10471;SDS011;5283;48.876;8.962;2023-12-04T07:27:27;5.60;;;4.73;;
10471;SDS011;5283;48.876;8.962;2023-12-04T07:29:54;5.60;;;4.80;;
10471;SDS011;5283;48.876;8.962;2023-12-04T07:32:21;5.40;;;4.83;;
10471;SDS011;5283;48.876;8.962;2023-12-04T07:34:47;4.90;;;4.27;;
10471;SDS011;5283;48.876;8.962;2023-12-04T07:37:14;5.83;;;4.67;;
10471;SDS011;5283;48.876;8.962;2023-12-04T07:39:41;5.63;;;4.47;;
10471;SDS011;5283;48.876;8.962;2023-12-04T07:42:12;4.57;;;4.07;;
10471;SDS011;5283;48.876;8.962;2023-12-04T07:44:39;5.17;;;4.20;;
10471;SDS011;5283;48.876;8.962;2023-12-04T07:47:05;5.10;;;4.27;;
10471;SDS011;5283;48.876;8.962;2023-12-04T07:49:32;4.83;;;4.33;;
10471;SDS011;5283;48.876;8.962;2023-12-04T07:51:59;5.63;;;4.73;;
10471;SDS011;5283;48.876;8.962;2023-12-04T07:54:25;5.87;;;4.83;;
10471;SDS011;5283;48.876;8.962;2023-12-04T07:56:53;5.17;;;4.40;;
10471;SDS011;5283;48.876;8.962;2023-12-04T07:59:19;4.80;;;4.30;;
10471;SDS011;5283;48.876;8.962;2023-12-04T08:01:46;5.80;;;4.63;;
10471;SDS011;5283;48.876;8.962;2023-12-04T08:04:13;5.63;;;4.40;;
10471;SDS011;5283;48.876;8.962;2023-12-04T08:06:39;4.53;;;4.07;;
10471;SDS011;5283;48.876;8.962;2023-12-04T08:09:07;4.60;;;4.10;;
10471;SDS011;5283;48.876;8.962;2023-12-04T08:11:36;4.93;;;4.20;;
10471;SDS011;5283;48.876;8.962;2023-12-04T08:14:03;5.37;;;4.67;;
10471;SDS011;5283;48.876;8.962;2023-12-04T08:16:30;5.10;;;4.50;;
10471;SDS011;5283;48.876;8.962;2023-12-04T08:18:56;4.77;;;4.00;;
10471;SDS011;5283;48.876;8.962;2023-12-04T08:21:23;5.13;;;4.37;;
10471;SDS011;5283;48.876;8.962;2023-12-04T08:23:50;4.77;;;4.10;;
10471;SDS011;5283;48.876;8.962;2023-12-04T08:26:23;7.23;;;4.37;;
10471;SDS011;5283;48.876;8.962;2023-12-04T08:28:51;4.80;;;4.30;;
10471;SDS011;5283;48.876;8.962;2023-12-04T08:31:18;3.97;;;3.57;;
10471;SDS011;5283;48.876;8.962;2023-12-04T08:33:45;4.73;;;3.83;;
10471;SDS011;5283;48.876;8.962;2023-12-04T08:36:12;4.13;;;3.73;;
10471;SDS011;5283;48.876;8.962;2023-12-04T08:38:38;3.97;;;3.57;;
10471;SDS011;5283;48.876;8.962;2023-12-04T08:41:05;3.67;;;3.37;;
10471;SDS011;5283;48.876;8.962;2023-12-04T08:43:33;4.10;;;3.70;;
10471;SDS011;5283;48.876;8.962;2023-12-04T08:45:59;4.17;;;3.77;;
10471;SDS011;5283;48.876;8.962;2023-12-04T08:48:26;4.40;;;4.00;;
10471;SDS011;5283;48.876;8.962;2023-12-04T08:50:53;4.03;;;3.70;;
10471;SDS011;5283;48.876;8.962;2023-12-04T08:53:20;4.23;;;3.83;;
10471;SDS011;5283;48.876;8.962;2023-12-04T08:55:47;3.83;;;3.47;;
10471;SDS011;5283;48.876;8.962;2023-12-04T08:58:14;4.63;;;4.20;;
10471;SDS011;5283;48.876;8.962;2023-12-04T09:00:41;5.67;;;5.13;;
10471;SDS011;5283;48.876;8.962;2023-12-04T09:03:09;5.43;;;4.87;;
10471;SDS011;5283;48.876;8.962;2023-12-04T09:05:41;6.40;;;5.80;;
10471;SDS011;5283;48.876;8.962;2023-12-04T09:08:07;5.63;;;5.00;;
10471;SDS011;5283;48.876;8.962;2023-12-04T09:10:37;4.40;;;4.00;;
10471;SDS011;5283;48.876;8.962;2023-12-04T09:13:05;4.73;;;4.30;;
10471;SDS011;5283;48.876;8.962;2023-12-04T09:15:32;5.57;;;4.40;;
10471;SDS011;5283;48.876;8.962;2023-12-04T09:17:58;4.50;;;4.10;;
10471;SDS011;5283;48.876;8.962;2023-12-04T09:20:26;4.10;;;3.70;;
10471;SDS011;5283;48.876;8.962;2023-12-04T09:22:53;3.70;;;3.40;;
10471;SDS011;5283;48.876;8.962;2023-12-04T09:25:20;4.40;;;3.17;;
10471;SDS011;5283;48.876;8.962;2023-12-04T09:27:47;4.23;;;3.57;;
10471;SDS011;5283;48.876;8.962;2023-12-04T09:30:14;3.43;;;3.13;;
10471;SDS011;5283;48.876;8.962;2023-12-04T09:32:40;3.60;;;3.30;;
10471;SDS011;5283;48.876;8.962;2023-12-04T09:35:08;3.60;;;3.30;;
10471;SDS011;5283;48.876;8.962;2023-12-04T09:37:35;3.27;;;2.83;;
10471;SDS011;5283;48.876;8.962;2023-12-04T09:40:02;3.60;;;3.30;;
10471;SDS011;5283;48.876;8.962;2023-12-04T09:42:30;4.07;;;3.67;;
10471;SDS011;5283;48.876;8.962;2023-12-04T09:44:57;5.67;;;5.03;;
10471;SDS011;5283;48.876;8.962;2023-12-04T09:47:25;6.03;;;4.37;;
10471;SDS011;5283;48.876;8.962;2023-12-04T09:49:52;3.83;;;3.50;;
10471;SDS011;5283;48.876;8.962;2023-12-04T09:52:20;4.80;;;4.30;;
10471;SDS011;5283;48.876;8.962;2023-12-04T09:54:47;4.20;;;3.80;;
10471;SDS011;5283;48.876;8.962;2023-12-04T09:57:14;3.80;;;3.50;;
10471;SDS011;5283;48.876;8.962;2023-12-04T09:59:41;3.87;;;3.37;;
10471;SDS011;5283;48.876;8.962;2023-12-04T10:02:11;3.43;;;3.13;;
10471;SDS011;5283;48.876;8.962;2023-12-04T10:04:38;3.97;;;3.50;;
10471;SDS011;5283;48.876;8.962;2023-12-04T10:07:06;4.97;;;3.50;;
10471;SDS011;5283;48.876;8.962;2023-12-04T10:09:32;3.73;;;3.43;;
10471;SDS011;5283;48.876;8.962;2023-12-04T10:11:59;7.00;;;6.23;;
10471;SDS011;5283;48.876;8.962;2023-12-04T10:14:26;3.60;;;3.30;;
10471;SDS011;5283;48.876;8.962;2023-12-04T10:16:53;4.00;;;3.60;;
10471;SDS011;5283;48.876;8.962;2023-12-04T10:19:20;3.90;;;3.50;;
10471;SDS011;5283;48.876;8.962;2023-12-04T10:21:54;3.50;;;3.20;;
10471;SDS011;5283;48.876;8.962;2023-12-04T10:24:34;3.50;;;3.20;;
10471;SDS011;5283;48.876;8.962;2023-12-04T10:27:04;3.50;;;3.20;;
10471;SDS011;5283;48.876;8.962;2023-12-04T10:29:43;3.40;;;3.10;;
10471;SDS011;5283;48.876;8.962;2023-12-04T10:32:17;3.40;;;3.10;;
10471;SDS011;5283;48.876;8.962;2023-12-04T10:34:48;4.37;;;3.00;;
10471;SDS011;5283;48.876;8.962;2023-12-04T10:37:15;3.00;;;2.70;;
10471;SDS011;5283;48.876;8.962;2023-12-04T10:39:47;4.77;;;3.00;;
10471;SDS011;5283;48.876;8.962;2023-12-04T10:42:24;3.43;;;3.13;;
10471;SDS011;5283;48.876;8.962;2023-12-04T10:44:56;3.50;;;3.20;;
10471;SDS011;5283;48.876;8.962;2023-12-04T10:47:24;3.63;;;3.33;;
10471;SDS011;5283;48.876;8.962;2023-12-04T10:49:51;3.30;;;3.00;;
10471;SDS011;5283;48.876;8.962;2023-12-04T10:52:19;3.37;;;2.90;;
10471;SDS011;5283;48.876;8.962;2023-12-04T10:54:48;3.47;;;3.17;;
10471;SDS011;5283;48.876;8.962;2023-12-04T10:57:25;3.53;;;3.23;;
10471;SDS011;5283;48.876;8.962;2023-12-04T10:59:58;3.10;;;2.80;;
10471;SDS011;5283;48.876;8.962;2023-12-04T11:02:29;3.30;;;3.00;;
10471;SDS011;5283;48.876;8.962;2023-12-04T11:05:09;3.40;;;3.10;;
10471;SDS011;5283;48.876;8.962;2023-12-04T11:07:50;3.50;;;3.20;;
10471;SDS011;5283;48.876;8.962;2023-12-04T11:10:22;7.10;;;4.17;;
10471;SDS011;5283;48.876;8.962;2023-12-04T11:12:56;5.87;;;4.40;;
10471;SDS011;5283;48.876;8.962;2023-12-04T11:15:29;3.50;;;3.20;;
10471;SDS011;5283;48.876;8.962;2023-12-04T11:17:59;3.27;;;2.97;;
10471;SDS011;5283;48.876;8.962;2023-12-04T11:20:29;3.40;;;3.10;;
10471;SDS011;5283;48.876;8.962;2023-12-04T11:23:01;3.50;;;3.10;;
10471;SDS011;5283;48.876;8.962;2023-12-04T11:25:29;3.20;;;3.00;;
10471;SDS011;5283;48.876;8.962;2023-12-04T11:28:01;3.70;;;3.40;;
10471;SDS011;5283;48.876;8.962;2023-12-04T11:30:32;4.43;;;4.03;;
10471;SDS011;5283;48.876;8.962;2023-12-04T11:32:59;5.63;;;4.97;;
10471;SDS011;5283;48.876;8.962;2023-12-04T11:35:26;5.63;;;5.00;;
10471;SDS011;5283;48.876;8.962;2023-12-04T11:37:54;5.23;;;4.47;;
10471;SDS011;5283;48.876;8.962;2023-12-04T11:40:20;4.60;;;4.10;;
10471;SDS011;5283;48.876;8.962;2023-12-04T11:42:48;9.23;;;7.20;;
10471;SDS011;5283;48.876;8.962;2023-12-04T11:45:18;5.43;;;4.60;;
10471;SDS011;5283;48.876;8.962;2023-12-04T11:47:50;3.97;;;3.67;;
10471;SDS011;5283;48.876;8.962;2023-12-04T11:50:24;3.87;;;3.57;;
10471;SDS011;5283;48.876;8.962;2023-12-04T11:52:51;3.53;;;3.17;;
10471;SDS011;5283;48.876;8.962;2023-12-04T11:55:22;3.33;;;3.10;;
10471;SDS011;5283;48.876;8.962;2023-12-04T11:57:50;3.73;;;3.30;;
10471;SDS011;5283;48.876;8.962;2023-12-04T12:02:47;4.37;;;3.97;;
10471;SDS011;5283;48.876;8.962;2023-12-04T12:05:14;4.70;;;4.30;;
10471;SDS011;5283;48.876;8.962;2023-12-04T12:07:41;4.20;;;3.60;;
10471;SDS011;5283;48.876;8.962;2023-12-04T12:10:09;3.57;;;3.27;;
10471;SDS011;5283;48.876;8.962;2023-12-04T12:12:37;3.70;;;3.40;;
10471;SDS011;5283;48.876;8.962;2023-12-04T12:15:04;4.10;;;3.70;;
10471;SDS011;5283;48.876;8.962;2023-12-04T12:17:35;3.70;;;3.40;;
10471;SDS011;5283;48.876;8.962;2023-12-04T12:20:08;3.47;;;3.17;;
10471;SDS011;5283;48.876;8.962;2023-12-04T12:22:38;4.67;;;3.30;;
10471;SDS011;5283;48.876;8.962;2023-12-04T12:25:10;4.83;;;4.20;;
10471;SDS011;5283;48.876;8.962;2023-12-04T12:27:37;4.37;;;3.97;;
10471;SDS011;5283;48.876;8.962;2023-12-04T12:30:05;4.87;;;4.10;;
10471;SDS011;5283;48.876;8.962;2023-12-04T12:32:33;4.47;;;4.07;;
10471;SDS011;5283;48.876;8.962;2023-12-04T12:35:00;5.37;;;4.30;;
10471;SDS011;5283;48.876;8.962;2023-12-04T12:37:27;5.27;;;4.50;;
10471;SDS011;5283;48.876;8.962;2023-12-04T12:39:54;5.57;;;4.67;;
10471;SDS011;5283;48.876;8.962;2023-12-04T12:42:26;5.20;;;4.70;;
10471;SDS011;5283;48.876;8.962;2023-12-04T12:44:54;5.47;;;4.73;;
10471;SDS011;5283;48.876;8.962;2023-12-04T12:47:22;5.03;;;4.47;;
10471;SDS011;5283;48.876;8.962;2023-12-04T12:49:49;4.60;;;4.20;;
10471;SDS011;5283;48.876;8.962;2023-12-04T12:52:16;5.00;;;4.50;;
10471;SDS011;5283;48.876;8.962;2023-12-04T12:54:43;4.70;;;4.30;;
10471;SDS011;5283;48.876;8.962;2023-12-04T12:57:10;6.27;;;5.33;;
10471;SDS011;5283;48.876;8.962;2023-12-04T12:59:38;5.37;;;4.67;;
10471;SDS011;5283;48.876;8.962;2023-12-04T13:02:06;6.57;;;5.87;;
10471;SDS011;5283;48.876;8.962;2023-12-04T13:04:37;5.80;;;5.23;;
10471;SDS011;5283;48.876;8.962;2023-12-04T13:07:04;6.43;;;5.67;;
10471;SDS011;5283;48.876;8.962;2023-12-04T13:09:35;8.73;;;6.37;;
10471;SDS011;5283;48.876;8.962;2023-12-04T13:12:02;5.23;;;4.70;;
10471;SDS011;5283;48.876;8.962;2023-12-04T13:14:30;7.60;;;6.73;;
10471;SDS011;5283;48.876;8.962;2023-12-04T13:16:57;5.60;;;5.00;;
10471;SDS011;5283;48.876;8.962;2023-12-04T13:19:24;4.60;;;4.20;;
10471;SDS011;5283;48.876;8.962;2023-12-04T13:21:51;4.87;;;4.43;;
10471;SDS011;5283;48.876;8.962;2023-12-04T13:24:18;5.30;;;4.33;;
10471;SDS011;5283;48.876;8.962;2023-12-04T13:26:45;4.60;;;4.20;;
10471;SDS011;5283;48.876;8.962;2023-12-04T13:29:12;5.10;;;4.60;;
10471;SDS011;5283;48.876;8.962;2023-12-04T13:31:43;5.63;;;4.97;;
10471;SDS011;5283;48.876;8.962;2023-12-04T13:34:13;6.67;;;4.80;;
10471;SDS011;5283;48.876;8.962;2023-12-04T13:36:40;5.40;;;4.90;;
10471;SDS011;5283;48.876;8.962;2023-12-04T13:39:07;5.93;;;5.13;;
10471;SDS011;5283;48.876;8.962;2023-12-04T13:41:43;5.13;;;4.60;;
10471;SDS011;5283;48.876;8.962;2023-12-04T13:44:30;5.40;;;4.90;;
10471;SDS011;5283;48.876;8.962;2023-12-04T13:46:57;5.27;;;4.77;;
10471;SDS011;5283;48.876;8.962;2023-12-04T13:49:23;6.80;;;4.97;;
10471;SDS011;5283;48.876;8.962;2023-12-04T13:51:50;6.77;;;5.63;;
10471;SDS011;5283;48.876;8.962;2023-12-04T13:54:17;6.07;;;5.33;;
10471;SDS011;5283;48.876;8.962;2023-12-04T13:56:48;6.87;;;5.10;;
10471;SDS011;5283;48.876;8.962;2023-12-04T13:59:22;5.70;;;5.10;;
10471;SDS011;5283;48.876;8.962;2023-12-04T14:01:50;5.60;;;4.93;;
10471;SDS011;5283;48.876;8.962;2023-12-04T14:04:17;5.63;;;5.00;;
10471;SDS011;5283;48.876;8.962;2023-12-04T14:06:44;5.37;;;4.87;;
10471;SDS011;5283;48.876;8.962;2023-12-04T14:09:12;5.73;;;4.90;;
10471;SDS011;5283;48.876;8.962;2023-12-04T14:11:44;5.00;;;4.50;;
10471;SDS011;5283;48.876;8.962;2023-12-04T14:14:11;4.70;;;4.20;;
10471;SDS011;5283;48.876;8.962;2023-12-04T14:16:39;4.60;;;4.20;;
10471;SDS011;5283;48.876;8.962;2023-12-04T14:19:07;5.67;;;5.07;;
10471;SDS011;5283;48.876;8.962;2023-12-04T14:21:34;5.07;;;4.57;;
10471;SDS011;5283;48.876;8.962;2023-12-04T14:24:00;5.10;;;4.60;;
10471;SDS011;5283;48.876;8.962;2023-12-04T14:26:27;6.57;;;5.37;;
10471;SDS011;5283;48.876;8.962;2023-12-04T14:28:54;5.80;;;4.30;;
10471;SDS011;5283;48.876;8.962;2023-12-04T14:31:23;4.57;;;4.17;;
10471;SDS011;5283;48.876;8.962;2023-12-04T14:33:50;5.63;;;4.40;;
10471;SDS011;5283;48.876;8.962;2023-12-04T14:36:17;4.67;;;4.23;;
10471;SDS011;5283;48.876;8.962;2023-12-04T14:38:43;5.10;;;4.60;;
10471;SDS011;5283;48.876;8.962;2023-12-04T14:41:10;6.57;;;5.00;;
10471;SDS011;5283;48.876;8.962;2023-12-04T14:43:37;5.40;;;4.53;;
10471;SDS011;5283;48.876;8.962;2023-12-04T14:46:04;5.90;;;5.20;;
10471;SDS011;5283;48.876;8.962;2023-12-04T14:48:35;4.97;;;4.47;;
10471;SDS011;5283;48.876;8.962;2023-12-04T14:51:03;6.00;;;5.37;;
10471;SDS011;5283;48.876;8.962;2023-12-04T14:53:31;5.03;;;4.53;;
10471;SDS011;5283;48.876;8.962;2023-12-04T14:56:10;5.30;;;4.80;;
10471;SDS011;5283;48.876;8.962;2023-12-04T14:58:57;5.20;;;4.70;;
10471;SDS011;5283;48.876;8.962;2023-12-04T15:01:47;5.33;;;4.70;;
10471;SDS011;5283;48.876;8.962;2023-12-04T15:04:40;6.10;;;5.27;;
10471;SDS011;5283;48.876;8.962;2023-12-04T15:07:26;6.47;;;5.47;;